sensor_id;sensor_type;location;lat;lon;timestamp;P1;durP1;ratioP1;P2;durP2;ratioP2
69081;SDS011;56184;51.986;5.760;2022-11-15T00:02:07;34.90;;;14.95;;
69081;SDS011;56184;51.986;5.760;2022-11-15T00:04:33;37.25;;;15.85;;
69081;SDS011;56184;51.986;5.760;2022-11-15T00:06:58;36.22;;;15.80;;
69081;SDS011;56184;51.986;5.760;2022-11-15T00:09:24;37.17;;;15.98;;
69081;SDS011;56184;51.986;5.760;2022-11-15T00:11:50;38.40;;;15.40;;
69081;SDS011;56184;51.986;5.760;2022-11-15T00:14:22;33.10;;;15.30;;
69081;SDS011;56184;51.986;5.760;2022-11-15T00:16:48;41.85;;;15.77;;
69081;SDS011;56184;51.986;5.760;2022-11-15T00:19:13;36.13;;;15.30;;
69081;SDS011;56184;51.986;5.760;2022-11-15T00:21:39;30.23;;;13.77;;
69081;SDS011;56184;51.986;5.760;2022-11-15T00:24:06;41.47;;;16.25;;
69081;SDS011;56184;51.986;5.760;2022-11-15T00:26:31;39.03;;;15.38;;
69081;SDS011;56184;51.986;5.760;2022-11-15T00:28:57;36.38;;;14.70;;
69081;SDS011;56184;51.986;5.760;2022-11-15T00:31:22;41.17;;;15.63;;
69081;SDS011;56184;51.986;5.760;2022-11-15T00:33:48;29.25;;;13.43;;
69081;SDS011;56184;51.986;5.760;2022-11-15T00:36:13;32.15;;;14.40;;
69081;SDS011;56184;51.986;5.760;2022-11-15T00:38:39;39.97;;;15.57;;
69081;SDS011;56184;51.986;5.760;2022-11-15T00:41:06;33.65;;;15.02;;
69081;SDS011;56184;51.986;5.760;2022-11-15T00:43:32;39.70;;;15.50;;
69081;SDS011;56184;51.986;5.760;2022-11-15T00:46:00;31.85;;;15.10;;
69081;SDS011;56184;51.986;5.760;2022-11-15T00:48:27;35.30;;;15.15;;
69081;SDS011;56184;51.986;5.760;2022-11-15T00:50:53;36.05;;;14.68;;
69081;SDS011;56184;51.986;5.760;2022-11-15T00:53:18;43.03;;;15.50;;
69081;SDS011;56184;51.986;5.760;2022-11-15T00:55:46;29.42;;;14.38;;
69081;SDS011;56184;51.986;5.760;2022-11-15T00:58:11;35.58;;;15.88;;
69081;SDS011;56184;51.986;5.760;2022-11-15T01:00:37;31.80;;;14.55;;
69081;SDS011;56184;51.986;5.760;2022-11-15T01:03:02;31.15;;;14.13;;
69081;SDS011;56184;51.986;5.760;2022-11-15T01:05:28;31.88;;;14.52;;
69081;SDS011;56184;51.986;5.760;2022-11-15T01:07:54;34.22;;;14.57;;
69081;SDS011;56184;51.986;5.760;2022-11-15T01:10:20;33.88;;;14.85;;
69081;SDS011;56184;51.986;5.760;2022-11-15T01:12:47;30.25;;;13.73;;
69081;SDS011;56184;51.986;5.760;2022-11-15T01:15:13;32.00;;;14.18;;
69081;SDS011;56184;51.986;5.760;2022-11-15T01:17:38;30.95;;;13.93;;
69081;SDS011;56184;51.986;5.760;2022-11-15T01:20:04;32.65;;;13.75;;
69081;SDS011;56184;51.986;5.760;2022-11-15T01:22:30;30.27;;;13.80;;
69081;SDS011;56184;51.986;5.760;2022-11-15T01:24:56;24.88;;;12.65;;
69081;SDS011;56184;51.986;5.760;2022-11-15T01:27:21;27.63;;;12.60;;
69081;SDS011;56184;51.986;5.760;2022-11-15T01:29:47;32.75;;;13.50;;
69081;SDS011;56184;51.986;5.760;2022-11-15T01:32:12;33.05;;;14.23;;
69081;SDS011;56184;51.986;5.760;2022-11-15T01:34:38;24.63;;;13.18;;
69081;SDS011;56184;51.986;5.760;2022-11-15T01:37:04;25.80;;;13.10;;
69081;SDS011;56184;51.986;5.760;2022-11-15T01:39:29;33.67;;;15.52;;
69081;SDS011;56184;51.986;5.760;2022-11-15T01:41:55;28.52;;;13.43;;
69081;SDS011;56184;51.986;5.760;2022-11-15T01:47:08;28.90;;;14.43;;
69081;SDS011;56184;51.986;5.760;2022-11-15T01:49:38;31.05;;;13.85;;
69081;SDS011;56184;51.986;5.760;2022-11-15T01:52:11;24.48;;;13.15;;
69081;SDS011;56184;51.986;5.760;2022-11-15T01:54:39;36.22;;;14.02;;
69081;SDS011;56184;51.986;5.760;2022-11-15T01:57:06;36.05;;;14.85;;
69081;SDS011;56184;51.986;5.760;2022-11-15T01:59:34;27.77;;;13.60;;
69081;SDS011;56184;51.986;5.760;2022-11-15T02:02:02;24.33;;;13.80;;
69081;SDS011;56184;51.986;5.760;2022-11-15T02:04:28;27.55;;;13.85;;
69081;SDS011;56184;51.986;5.760;2022-11-15T02:06:56;30.85;;;14.68;;
69081;SDS011;56184;51.986;5.760;2022-11-15T02:09:22;25.77;;;13.50;;
69081;SDS011;56184;51.986;5.760;2022-11-15T02:11:48;30.30;;;13.43;;
69081;SDS011;56184;51.986;5.760;2022-11-15T02:14:15;22.77;;;13.05;;
69081;SDS011;56184;51.986;5.760;2022-11-15T02:19:28;21.13;;;13.13;;
69081;SDS011;56184;51.986;5.760;2022-11-15T02:30:29;24.20;;;13.02;;
69081;SDS011;56184;51.986;5.760;2022-11-15T02:41:24;23.67;;;12.30;;
69081;SDS011;56184;51.986;5.760;2022-11-15T02:44:12;20.73;;;12.68;;
69081;SDS011;56184;51.986;5.760;2022-11-15T02:49:34;22.73;;;11.70;;
69081;SDS011;56184;51.986;5.760;2022-11-15T02:52:02;21.70;;;12.68;;
69081;SDS011;56184;51.986;5.760;2022-11-15T02:54:29;20.30;;;11.90;;
69081;SDS011;56184;51.986;5.760;2022-11-15T02:57:06;21.63;;;12.77;;
69081;SDS011;56184;51.986;5.760;2022-11-15T03:12:41;23.80;;;12.07;;
69081;SDS011;56184;51.986;5.760;2022-11-15T03:15:37;20.75;;;11.73;;
69081;SDS011;56184;51.986;5.760;2022-11-15T03:18:10;19.15;;;11.20;;
69081;SDS011;56184;51.986;5.760;2022-11-15T03:20:46;21.50;;;11.90;;
69081;SDS011;56184;51.986;5.760;2022-11-15T03:23:13;18.95;;;11.63;;
69081;SDS011;56184;51.986;5.760;2022-11-15T03:25:42;18.85;;;11.57;;
69081;SDS011;56184;51.986;5.760;2022-11-15T03:28:11;22.20;;;12.70;;
69081;SDS011;56184;51.986;5.760;2022-11-15T03:30:41;17.42;;;11.52;;
69081;SDS011;56184;51.986;5.760;2022-11-15T03:33:09;16.80;;;11.18;;
69081;SDS011;56184;51.986;5.760;2022-11-15T03:35:40;19.30;;;11.65;;
69081;SDS011;56184;51.986;5.760;2022-11-15T03:38:25;20.63;;;11.75;;
69081;SDS011;56184;51.986;5.760;2022-11-15T03:49:25;18.90;;;10.85;;
69081;SDS011;56184;51.986;5.760;2022-11-15T03:51:56;18.38;;;11.70;;
69081;SDS011;56184;51.986;5.760;2022-11-15T03:54:26;17.65;;;11.60;;
69081;SDS011;56184;51.986;5.760;2022-11-15T03:56:52;20.10;;;11.82;;
69081;SDS011;56184;51.986;5.760;2022-11-15T03:59:18;20.08;;;12.50;;
69081;SDS011;56184;51.986;5.760;2022-11-15T04:01:44;25.25;;;12.40;;
69081;SDS011;56184;51.986;5.760;2022-11-15T04:04:11;21.02;;;12.57;;
69081;SDS011;56184;51.986;5.760;2022-11-15T04:06:37;20.23;;;11.43;;
69081;SDS011;56184;51.986;5.760;2022-11-15T04:09:08;19.58;;;11.63;;
69081;SDS011;56184;51.986;5.760;2022-11-15T04:11:34;18.65;;;11.98;;
69081;SDS011;56184;51.986;5.760;2022-11-15T04:14:01;22.23;;;12.45;;
69081;SDS011;56184;51.986;5.760;2022-11-15T04:16:26;29.70;;;13.38;;
69081;SDS011;56184;51.986;5.760;2022-11-15T04:18:52;22.30;;;12.60;;
69081;SDS011;56184;51.986;5.760;2022-11-15T04:21:37;24.33;;;11.27;;
69081;SDS011;56184;51.986;5.760;2022-11-15T04:24:21;22.10;;;12.35;;
69081;SDS011;56184;51.986;5.760;2022-11-15T04:27:04;21.42;;;12.05;;
69081;SDS011;56184;51.986;5.760;2022-11-15T04:29:30;23.15;;;13.63;;
69081;SDS011;56184;51.986;5.760;2022-11-15T04:32:02;16.38;;;10.35;;
69081;SDS011;56184;51.986;5.760;2022-11-15T04:34:29;32.00;;;13.63;;
69081;SDS011;56184;51.986;5.760;2022-11-15T04:36:55;24.17;;;12.40;;
69081;SDS011;56184;51.986;5.760;2022-11-15T04:39:40;18.65;;;10.82;;
69081;SDS011;56184;51.986;5.760;2022-11-15T04:42:06;24.65;;;13.00;;
69081;SDS011;56184;51.986;5.760;2022-11-15T04:44:32;21.33;;;13.18;;
69081;SDS011;56184;51.986;5.760;2022-11-15T04:46:57;18.92;;;12.60;;
69081;SDS011;56184;51.986;5.760;2022-11-15T04:49:23;19.92;;;12.63;;
69081;SDS011;56184;51.986;5.760;2022-11-15T04:51:49;19.13;;;12.32;;
69081;SDS011;56184;51.986;5.760;2022-11-15T04:54:14;19.55;;;11.30;;
69081;SDS011;56184;51.986;5.760;2022-11-15T04:56:40;15.70;;;11.45;;
69081;SDS011;56184;51.986;5.760;2022-11-15T04:59:18;23.55;;;11.63;;
69081;SDS011;56184;51.986;5.760;2022-11-15T05:01:45;20.60;;;12.18;;
69081;SDS011;56184;51.986;5.760;2022-11-15T05:04:11;18.13;;;11.57;;
69081;SDS011;56184;51.986;5.760;2022-11-15T05:06:46;23.42;;;13.48;;
69081;SDS011;56184;51.986;5.760;2022-11-15T05:09:13;22.42;;;13.80;;
69081;SDS011;56184;51.986;5.760;2022-11-15T05:11:41;19.58;;;12.45;;
69081;SDS011;56184;51.986;5.760;2022-11-15T05:14:07;22.27;;;11.85;;
69081;SDS011;56184;51.986;5.760;2022-11-15T05:16:32;23.23;;;12.60;;
69081;SDS011;56184;51.986;5.760;2022-11-15T05:18:58;25.63;;;13.63;;
69081;SDS011;56184;51.986;5.760;2022-11-15T05:21:23;22.10;;;13.95;;
69081;SDS011;56184;51.986;5.760;2022-11-15T05:23:49;20.65;;;11.98;;
69081;SDS011;56184;51.986;5.760;2022-11-15T05:26:15;23.08;;;13.23;;
69081;SDS011;56184;51.986;5.760;2022-11-15T05:28:42;20.55;;;12.73;;
69081;SDS011;56184;51.986;5.760;2022-11-15T05:31:09;27.80;;;13.05;;
69081;SDS011;56184;51.986;5.760;2022-11-15T05:33:36;28.27;;;13.00;;
69081;SDS011;56184;51.986;5.760;2022-11-15T05:38:45;23.58;;;12.23;;
69081;SDS011;56184;51.986;5.760;2022-11-15T05:41:12;21.80;;;13.18;;
69081;SDS011;56184;51.986;5.760;2022-11-15T05:43:38;20.85;;;12.32;;
69081;SDS011;56184;51.986;5.760;2022-11-15T05:46:05;19.85;;;11.00;;
69081;SDS011;56184;51.986;5.760;2022-11-15T05:48:31;20.90;;;13.20;;
69081;SDS011;56184;51.986;5.760;2022-11-15T05:50:59;24.73;;;12.80;;
69081;SDS011;56184;51.986;5.760;2022-11-15T05:53:25;25.48;;;13.25;;
69081;SDS011;56184;51.986;5.760;2022-11-15T05:55:51;21.17;;;12.35;;
69081;SDS011;56184;51.986;5.760;2022-11-15T05:58:17;22.23;;;11.98;;
69081;SDS011;56184;51.986;5.760;2022-11-15T06:00:45;22.30;;;13.68;;
69081;SDS011;56184;51.986;5.760;2022-11-15T06:03:11;21.17;;;14.27;;
69081;SDS011;56184;51.986;5.760;2022-11-15T06:05:36;24.85;;;13.05;;
69081;SDS011;56184;51.986;5.760;2022-11-15T06:08:02;20.48;;;12.90;;
69081;SDS011;56184;51.986;5.760;2022-11-15T06:10:27;25.13;;;13.88;;
69081;SDS011;56184;51.986;5.760;2022-11-15T06:12:59;26.13;;;13.48;;
69081;SDS011;56184;51.986;5.760;2022-11-15T06:15:26;21.40;;;13.93;;
69081;SDS011;56184;51.986;5.760;2022-11-15T06:17:51;21.38;;;12.85;;
69081;SDS011;56184;51.986;5.760;2022-11-15T06:20:17;22.98;;;12.20;;
69081;SDS011;56184;51.986;5.760;2022-11-15T06:22:43;28.15;;;12.95;;
69081;SDS011;56184;51.986;5.760;2022-11-15T06:25:08;24.38;;;12.98;;
69081;SDS011;56184;51.986;5.760;2022-11-15T06:27:34;23.02;;;13.57;;
69081;SDS011;56184;51.986;5.760;2022-11-15T06:29:59;20.73;;;12.90;;
69081;SDS011;56184;51.986;5.760;2022-11-15T06:32:25;20.70;;;12.77;;
69081;SDS011;56184;51.986;5.760;2022-11-15T06:34:51;31.80;;;14.23;;
69081;SDS011;56184;51.986;5.760;2022-11-15T06:37:16;20.80;;;13.00;;
69081;SDS011;56184;51.986;5.760;2022-11-15T06:39:42;28.42;;;13.98;;
69081;SDS011;56184;51.986;5.760;2022-11-15T06:42:08;25.15;;;13.50;;
69081;SDS011;56184;51.986;5.760;2022-11-15T06:44:34;20.92;;;13.25;;
69081;SDS011;56184;51.986;5.760;2022-11-15T06:46:59;21.38;;;11.93;;
69081;SDS011;56184;51.986;5.760;2022-11-15T06:49:25;21.35;;;12.45;;
69081;SDS011;56184;51.986;5.760;2022-11-15T06:51:50;22.33;;;13.05;;
69081;SDS011;56184;51.986;5.760;2022-11-15T06:54:16;22.95;;;13.13;;
69081;SDS011;56184;51.986;5.760;2022-11-15T06:56:41;21.30;;;13.02;;
69081;SDS011;56184;51.986;5.760;2022-11-15T06:59:07;20.50;;;12.43;;
69081;SDS011;56184;51.986;5.760;2022-11-15T07:01:32;23.65;;;13.05;;
69081;SDS011;56184;51.986;5.760;2022-11-15T07:03:58;20.98;;;13.43;;
69081;SDS011;56184;51.986;5.760;2022-11-15T07:06:24;20.50;;;12.65;;
69081;SDS011;56184;51.986;5.760;2022-11-15T07:08:49;25.70;;;13.32;;
69081;SDS011;56184;51.986;5.760;2022-11-15T07:11:15;23.58;;;12.82;;
69081;SDS011;56184;51.986;5.760;2022-11-15T07:13:40;20.63;;;12.80;;
69081;SDS011;56184;51.986;5.760;2022-11-15T07:16:07;21.02;;;12.13;;
69081;SDS011;56184;51.986;5.760;2022-11-15T07:18:34;23.67;;;11.63;;
69081;SDS011;56184;51.986;5.760;2022-11-15T07:21:04;22.17;;;11.80;;
69081;SDS011;56184;51.986;5.760;2022-11-15T07:23:31;24.08;;;12.55;;
69081;SDS011;56184;51.986;5.760;2022-11-15T07:25:57;17.08;;;11.07;;
69081;SDS011;56184;51.986;5.760;2022-11-15T07:28:23;20.17;;;11.93;;
69081;SDS011;56184;51.986;5.760;2022-11-15T07:30:50;22.25;;;11.85;;
69081;SDS011;56184;51.986;5.760;2022-11-15T07:33:15;17.42;;;11.55;;
69081;SDS011;56184;51.986;5.760;2022-11-15T07:35:41;19.52;;;12.30;;
69081;SDS011;56184;51.986;5.760;2022-11-15T07:38:07;18.63;;;11.73;;
69081;SDS011;56184;51.986;5.760;2022-11-15T07:40:33;20.65;;;10.82;;
69081;SDS011;56184;51.986;5.760;2022-11-15T07:43:02;22.77;;;11.30;;
69081;SDS011;56184;51.986;5.760;2022-11-15T07:45:30;17.90;;;11.57;;
69081;SDS011;56184;51.986;5.760;2022-11-15T07:47:56;18.67;;;11.30;;
69081;SDS011;56184;51.986;5.760;2022-11-15T07:50:23;18.40;;;10.38;;
69081;SDS011;56184;51.986;5.760;2022-11-15T07:52:55;13.80;;;9.60;;
69081;SDS011;56184;51.986;5.760;2022-11-15T07:55:22;16.65;;;11.45;;
69081;SDS011;56184;51.986;5.760;2022-11-15T07:57:49;18.75;;;11.52;;
69081;SDS011;56184;51.986;5.760;2022-11-15T08:00:14;16.67;;;10.45;;
69081;SDS011;56184;51.986;5.760;2022-11-15T08:02:46;17.48;;;9.68;;
69081;SDS011;56184;51.986;5.760;2022-11-15T08:05:12;17.48;;;10.23;;
69081;SDS011;56184;51.986;5.760;2022-11-15T08:07:44;16.67;;;11.38;;
69081;SDS011;56184;51.986;5.760;2022-11-15T08:10:09;19.45;;;11.15;;
69081;SDS011;56184;51.986;5.760;2022-11-15T08:12:36;18.60;;;9.48;;
69081;SDS011;56184;51.986;5.760;2022-11-15T08:15:02;16.92;;;10.82;;
69081;SDS011;56184;51.986;5.760;2022-11-15T08:17:28;20.70;;;11.02;;
69081;SDS011;56184;51.986;5.760;2022-11-15T08:19:57;19.58;;;9.75;;
69081;SDS011;56184;51.986;5.760;2022-11-15T08:22:23;18.25;;;9.73;;
69081;SDS011;56184;51.986;5.760;2022-11-15T08:24:48;14.23;;;8.63;;
69081;SDS011;56184;51.986;5.760;2022-11-15T08:27:14;16.05;;;10.23;;
69081;SDS011;56184;51.986;5.760;2022-11-15T08:29:41;20.27;;;10.52;;
69081;SDS011;56184;51.986;5.760;2022-11-15T08:32:08;15.27;;;10.52;;
69081;SDS011;56184;51.986;5.760;2022-11-15T08:34:33;18.48;;;10.35;;
69081;SDS011;56184;51.986;5.760;2022-11-15T08:36:59;17.02;;;9.10;;
69081;SDS011;56184;51.986;5.760;2022-11-15T08:39:24;15.73;;;9.38;;
69081;SDS011;56184;51.986;5.760;2022-11-15T08:41:50;16.77;;;9.63;;
69081;SDS011;56184;51.986;5.760;2022-11-15T08:44:16;12.68;;;8.88;;
69081;SDS011;56184;51.986;5.760;2022-11-15T08:46:41;14.05;;;9.48;;
69081;SDS011;56184;51.986;5.760;2022-11-15T08:49:07;12.02;;;8.68;;
69081;SDS011;56184;51.986;5.760;2022-11-15T08:51:32;14.30;;;8.38;;
69081;SDS011;56184;51.986;5.760;2022-11-15T08:53:58;12.05;;;8.93;;
69081;SDS011;56184;51.986;5.760;2022-11-15T08:56:23;17.70;;;9.25;;
69081;SDS011;56184;51.986;5.760;2022-11-15T08:58:49;14.02;;;7.82;;
69081;SDS011;56184;51.986;5.760;2022-11-15T09:01:19;14.88;;;9.15;;
69081;SDS011;56184;51.986;5.760;2022-11-15T09:03:45;15.43;;;8.70;;
69081;SDS011;56184;51.986;5.760;2022-11-15T09:06:11;16.80;;;8.88;;
69081;SDS011;56184;51.986;5.760;2022-11-15T09:08:36;15.38;;;9.30;;
69081;SDS011;56184;51.986;5.760;2022-11-15T09:11:05;14.45;;;8.48;;
69081;SDS011;56184;51.986;5.760;2022-11-15T09:13:48;14.93;;;8.27;;
69081;SDS011;56184;51.986;5.760;2022-11-15T09:16:14;14.38;;;7.38;;
69081;SDS011;56184;51.986;5.760;2022-11-15T09:18:40;14.07;;;7.72;;
69081;SDS011;56184;51.986;5.760;2022-11-15T09:21:06;13.98;;;8.10;;
69081;SDS011;56184;51.986;5.760;2022-11-15T09:23:32;11.40;;;7.57;;
69081;SDS011;56184;51.986;5.760;2022-11-15T09:25:59;11.75;;;7.30;;
69081;SDS011;56184;51.986;5.760;2022-11-15T09:28:26;10.48;;;6.57;;
69081;SDS011;56184;51.986;5.760;2022-11-15T09:30:55;10.07;;;6.45;;
69081;SDS011;56184;51.986;5.760;2022-11-15T09:33:28;11.30;;;6.55;;
69081;SDS011;56184;51.986;5.760;2022-11-15T09:35:54;11.50;;;6.35;;
69081;SDS011;56184;51.986;5.760;2022-11-15T09:38:23;12.75;;;6.00;;
69081;SDS011;56184;51.986;5.760;2022-11-15T09:40:51;7.90;;;5.68;;
69081;SDS011;56184;51.986;5.760;2022-11-15T09:51:23;12.35;;;6.40;;
69081;SDS011;56184;51.986;5.760;2022-11-15T09:54:05;9.25;;;5.38;;
69081;SDS011;56184;51.986;5.760;2022-11-15T09:56:38;7.90;;;5.18;;
69081;SDS011;56184;51.986;5.760;2022-11-15T10:04:33;8.38;;;5.00;;
69081;SDS011;56184;51.986;5.760;2022-11-15T10:12:33;7.05;;;3.95;;
69081;SDS011;56184;51.986;5.760;2022-11-15T10:15:01;7.38;;;3.85;;
69081;SDS011;56184;51.986;5.760;2022-11-15T10:20:23;6.85;;;3.97;;
69081;SDS011;56184;51.986;5.760;2022-11-15T10:22:52;5.57;;;3.78;;
69081;SDS011;56184;51.986;5.760;2022-11-15T10:25:22;4.13;;;3.38;;
69081;SDS011;56184;51.986;5.760;2022-11-15T10:28:43;5.18;;;3.28;;
69081;SDS011;56184;51.986;5.760;2022-11-15T10:30:51;7.10;;;3.72;;
69081;SDS011;56184;51.986;5.760;2022-11-15T10:36:16;8.38;;;3.63;;
69081;SDS011;56184;51.986;5.760;2022-11-15T10:41:16;4.80;;;3.17;;
69081;SDS011;56184;51.986;5.760;2022-11-15T10:43:44;5.32;;;2.70;;
69081;SDS011;56184;51.986;5.760;2022-11-15T10:46:22;5.57;;;2.90;;
69081;SDS011;56184;51.986;5.760;2022-11-15T10:48:49;4.18;;;2.92;;
69081;SDS011;56184;51.986;5.760;2022-11-15T10:51:21;6.32;;;2.72;;
69081;SDS011;56184;51.986;5.760;2022-11-15T10:53:53;4.63;;;2.58;;
69081;SDS011;56184;51.986;5.760;2022-11-15T10:56:21;5.43;;;2.38;;
69081;SDS011;56184;51.986;5.760;2022-11-15T10:58:56;5.22;;;2.65;;
69081;SDS011;56184;51.986;5.760;2022-11-15T11:03:59;5.53;;;2.25;;
69081;SDS011;56184;51.986;5.760;2022-11-15T11:06:28;4.13;;;1.90;;
69081;SDS011;56184;51.986;5.760;2022-11-15T11:08:58;3.55;;;1.80;;
69081;SDS011;56184;51.986;5.760;2022-11-15T11:11:43;2.35;;;1.90;;
69081;SDS011;56184;51.986;5.760;2022-11-15T11:35:50;3.08;;;1.40;;
69081;SDS011;56184;51.986;5.760;2022-11-15T11:41:27;2.83;;;1.45;;
69081;SDS011;56184;51.986;5.760;2022-11-15T11:47:11;8.03;;;1.40;;
69081;SDS011;56184;51.986;5.760;2022-11-15T11:49:46;2.22;;;1.30;;
69081;SDS011;56184;51.986;5.760;2022-11-15T11:55:42;6.28;;;1.50;;
69081;SDS011;56184;51.986;5.760;2022-11-15T12:00:41;3.53;;;1.13;;
69081;SDS011;56184;51.986;5.760;2022-11-15T12:06:04;9.80;;;1.98;;
69081;SDS011;56184;51.986;5.760;2022-11-15T12:11:29;4.05;;;1.30;;
69081;SDS011;56184;51.986;5.760;2022-11-15T12:16:44;3.58;;;1.20;;
69081;SDS011;56184;51.986;5.760;2022-11-15T12:19:10;2.20;;;1.33;;
69081;SDS011;56184;51.986;5.760;2022-11-15T12:24:37;7.20;;;1.45;;
69081;SDS011;56184;51.986;5.760;2022-11-15T12:30:27;3.88;;;1.45;;
69081;SDS011;56184;51.986;5.760;2022-11-15T12:33:17;9.43;;;2.05;;
69081;SDS011;56184;51.986;5.760;2022-11-15T12:35:59;3.20;;;1.30;;
69081;SDS011;56184;51.986;5.760;2022-11-15T12:41:25;3.63;;;1.25;;
69081;SDS011;56184;51.986;5.760;2022-11-15T12:43:52;2.63;;;1.20;;
69081;SDS011;56184;51.986;5.760;2022-11-15T12:49:00;6.63;;;1.27;;
69081;SDS011;56184;51.986;5.760;2022-11-15T13:02:25;3.38;;;0.98;;
69081;SDS011;56184;51.986;5.760;2022-11-15T13:20:17;3.17;;;1.30;;
69081;SDS011;56184;51.986;5.760;2022-11-15T13:30:40;2.92;;;0.95;;
69081;SDS011;56184;51.986;5.760;2022-11-15T13:33:15;3.75;;;1.20;;
69081;SDS011;56184;51.986;5.760;2022-11-15T13:35:57;3.38;;;0.88;;
69081;SDS011;56184;51.986;5.760;2022-11-15T13:40:51;2.72;;;0.90;;
69081;SDS011;56184;51.986;5.760;2022-11-15T13:46:16;3.03;;;1.02;;
69081;SDS011;56184;51.986;5.760;2022-11-15T13:48:48;3.60;;;0.98;;
69081;SDS011;56184;51.986;5.760;2022-11-15T13:54:02;6.18;;;1.00;;
69081;SDS011;56184;51.986;5.760;2022-11-15T13:56:37;6.93;;;1.17;;
69081;SDS011;56184;51.986;5.760;2022-11-15T13:59:09;4.40;;;0.90;;
69081;SDS011;56184;51.986;5.760;2022-11-15T14:01:36;2.03;;;0.80;;
69081;SDS011;56184;51.986;5.760;2022-11-15T14:04:02;4.18;;;1.00;;
69081;SDS011;56184;51.986;5.760;2022-11-15T14:06:29;5.53;;;1.20;;
69081;SDS011;56184;51.986;5.760;2022-11-15T14:11:58;5.05;;;1.00;;
69081;SDS011;56184;51.986;5.760;2022-11-15T14:14:25;4.38;;;1.23;;
69081;SDS011;56184;51.986;5.760;2022-11-15T14:16:55;4.50;;;1.20;;
69081;SDS011;56184;51.986;5.760;2022-11-15T14:24:41;4.70;;;1.15;;
69081;SDS011;56184;51.986;5.760;2022-11-15T14:27:26;1.77;;;1.00;;
69081;SDS011;56184;51.986;5.760;2022-11-15T14:29:54;7.07;;;1.27;;
69081;SDS011;56184;51.986;5.760;2022-11-15T14:32:21;8.05;;;1.23;;
69081;SDS011;56184;51.986;5.760;2022-11-15T14:34:58;3.78;;;1.10;;
69081;SDS011;56184;51.986;5.760;2022-11-15T14:37:25;2.67;;;1.30;;
69081;SDS011;56184;51.986;5.760;2022-11-15T14:39:51;3.20;;;1.00;;
69081;SDS011;56184;51.986;5.760;2022-11-15T14:42:19;3.00;;;0.98;;
69081;SDS011;56184;51.986;5.760;2022-11-15T14:44:45;4.00;;;1.17;;
69081;SDS011;56184;51.986;5.760;2022-11-15T14:47:11;3.78;;;0.98;;
69081;SDS011;56184;51.986;5.760;2022-11-15T14:49:37;4.80;;;1.10;;
69081;SDS011;56184;51.986;5.760;2022-11-15T14:52:07;1.50;;;0.90;;
69081;SDS011;56184;51.986;5.760;2022-11-15T14:54:41;9.63;;;0.90;;
69081;SDS011;56184;51.986;5.760;2022-11-15T14:57:06;3.65;;;0.95;;
69081;SDS011;56184;51.986;5.760;2022-11-15T14:59:32;3.85;;;1.00;;
69081;SDS011;56184;51.986;5.760;2022-11-15T15:01:57;1.95;;;0.80;;
69081;SDS011;56184;51.986;5.760;2022-11-15T15:04:24;8.13;;;0.85;;
69081;SDS011;56184;51.986;5.760;2022-11-15T15:06:49;3.75;;;1.00;;
69081;SDS011;56184;51.986;5.760;2022-11-15T15:09:25;2.00;;;0.90;;
69081;SDS011;56184;51.986;5.760;2022-11-15T15:11:51;5.15;;;0.88;;
69081;SDS011;56184;51.986;5.760;2022-11-15T15:14:20;3.33;;;0.90;;
69081;SDS011;56184;51.986;5.760;2022-11-15T15:16:45;2.63;;;0.90;;
69081;SDS011;56184;51.986;5.760;2022-11-15T15:19:11;4.50;;;1.02;;
69081;SDS011;56184;51.986;5.760;2022-11-15T15:21:37;6.50;;;1.00;;
69081;SDS011;56184;51.986;5.760;2022-11-15T15:24:03;4.43;;;0.95;;
69081;SDS011;56184;51.986;5.760;2022-11-15T15:26:29;1.55;;;0.80;;
69081;SDS011;56184;51.986;5.760;2022-11-15T15:28:54;7.43;;;1.20;;
69081;SDS011;56184;51.986;5.760;2022-11-15T15:31:20;2.17;;;1.05;;
69081;SDS011;56184;51.986;5.760;2022-11-15T15:33:45;5.35;;;1.05;;
69081;SDS011;56184;51.986;5.760;2022-11-15T15:36:11;2.83;;;0.90;;
69081;SDS011;56184;51.986;5.760;2022-11-15T15:38:38;4.10;;;1.00;;
69081;SDS011;56184;51.986;5.760;2022-11-15T15:41:12;6.30;;;1.05;;
69081;SDS011;56184;51.986;5.760;2022-11-15T15:43:39;3.28;;;0.93;;
69081;SDS011;56184;51.986;5.760;2022-11-15T15:46:12;1.95;;;0.90;;
69081;SDS011;56184;51.986;5.760;2022-11-15T15:48:40;5.25;;;1.30;;
69081;SDS011;56184;51.986;5.760;2022-11-15T15:51:05;6.03;;;1.50;;
69081;SDS011;56184;51.986;5.760;2022-11-15T15:53:32;1.60;;;1.00;;
69081;SDS011;56184;51.986;5.760;2022-11-15T15:55:58;6.38;;;1.40;;
69081;SDS011;56184;51.986;5.760;2022-11-15T15:58:23;5.50;;;1.10;;
69081;SDS011;56184;51.986;5.760;2022-11-15T16:00:49;2.95;;;1.30;;
69081;SDS011;56184;51.986;5.760;2022-11-15T16:03:15;4.40;;;1.35;;
69081;SDS011;56184;51.986;5.760;2022-11-15T16:05:40;2.30;;;1.20;;
69081;SDS011;56184;51.986;5.760;2022-11-15T16:08:17;3.47;;;1.70;;
69081;SDS011;56184;51.986;5.760;2022-11-15T16:10:47;3.53;;;1.35;;
69081;SDS011;56184;51.986;5.760;2022-11-15T16:13:13;4.25;;;1.30;;
69081;SDS011;56184;51.986;5.760;2022-11-15T16:15:39;5.38;;;1.55;;
69081;SDS011;56184;51.986;5.760;2022-11-15T16:18:05;6.85;;;1.30;;
69081;SDS011;56184;51.986;5.760;2022-11-15T16:20:39;4.18;;;1.65;;
69081;SDS011;56184;51.986;5.760;2022-11-15T16:23:10;4.63;;;1.52;;
69081;SDS011;56184;51.986;5.760;2022-11-15T16:25:41;3.72;;;1.40;;
69081;SDS011;56184;51.986;5.760;2022-11-15T16:28:21;4.35;;;1.15;;
69081;SDS011;56184;51.986;5.760;2022-11-15T16:30:48;1.70;;;1.35;;
69081;SDS011;56184;51.986;5.760;2022-11-15T16:33:23;7.05;;;1.45;;
69081;SDS011;56184;51.986;5.760;2022-11-15T16:35:49;3.75;;;1.30;;
69081;SDS011;56184;51.986;5.760;2022-11-15T16:38:14;5.20;;;1.48;;
69081;SDS011;56184;51.986;5.760;2022-11-15T16:40:40;4.35;;;1.35;;
69081;SDS011;56184;51.986;5.760;2022-11-15T16:43:06;10.98;;;2.22;;
69081;SDS011;56184;51.986;5.760;2022-11-15T16:45:33;2.55;;;1.40;;
69081;SDS011;56184;51.986;5.760;2022-11-15T16:47:59;3.45;;;1.25;;
69081;SDS011;56184;51.986;5.760;2022-11-15T16:50:26;4.95;;;1.67;;
69081;SDS011;56184;51.986;5.760;2022-11-15T16:52:54;3.22;;;1.40;;
69081;SDS011;56184;51.986;5.760;2022-11-15T16:55:22;3.38;;;1.30;;
69081;SDS011;56184;51.986;5.760;2022-11-15T16:57:49;5.45;;;1.80;;
69081;SDS011;56184;51.986;5.760;2022-11-15T17:00:16;4.15;;;1.02;;
69081;SDS011;56184;51.986;5.760;2022-11-15T17:02:49;4.68;;;1.67;;
69081;SDS011;56184;51.986;5.760;2022-11-15T17:05:16;2.55;;;1.40;;
69081;SDS011;56184;51.986;5.760;2022-11-15T17:07:45;4.82;;;1.63;;
69081;SDS011;56184;51.986;5.760;2022-11-15T17:10:13;6.00;;;1.50;;
69081;SDS011;56184;51.986;5.760;2022-11-15T17:12:38;4.30;;;1.50;;
69081;SDS011;56184;51.986;5.760;2022-11-15T17:15:04;2.72;;;1.60;;
69081;SDS011;56184;51.986;5.760;2022-11-15T17:17:30;7.63;;;2.30;;
69081;SDS011;56184;51.986;5.760;2022-11-15T17:19:57;4.90;;;1.60;;
69081;SDS011;56184;51.986;5.760;2022-11-15T17:22:22;3.75;;;1.60;;
69081;SDS011;56184;51.986;5.760;2022-11-15T17:24:48;6.00;;;1.77;;
69081;SDS011;56184;51.986;5.760;2022-11-15T17:27:14;4.18;;;2.08;;
69081;SDS011;56184;51.986;5.760;2022-11-15T17:29:40;2.97;;;1.90;;
69081;SDS011;56184;51.986;5.760;2022-11-15T17:32:06;4.32;;;1.83;;
69081;SDS011;56184;51.986;5.760;2022-11-15T17:34:32;4.68;;;1.77;;
69081;SDS011;56184;51.986;5.760;2022-11-15T17:36:58;3.70;;;1.83;;
69081;SDS011;56184;51.986;5.760;2022-11-15T17:39:24;2.72;;;1.95;;
69081;SDS011;56184;51.986;5.760;2022-11-15T17:41:49;6.30;;;1.90;;
69081;SDS011;56184;51.986;5.760;2022-11-15T17:44:33;8.38;;;1.67;;